sensor_id;sensor_type;location;lat;lon;timestamp;P1;durP1;ratioP1;P2;durP2;ratioP2
5277;SDS011;2662;51.194;6.614;2022-10-26T00:00:43;5.07;;;3.07;;
5277;SDS011;2662;51.194;6.614;2022-10-26T00:03:10;10.53;;;3.10;;
5277;SDS011;2662;51.194;6.614;2022-10-26T00:05:37;2.40;;;2.10;;
5277;SDS011;2662;51.194;6.614;2022-10-26T00:08:04;9.73;;;2.87;;
5277;SDS011;2662;51.194;6.614;2022-10-26T00:10:32;6.60;;;2.73;;
5277;SDS011;2662;51.194;6.614;2022-10-26T00:12:59;3.90;;;2.07;;
5277;SDS011;2662;51.194;6.614;2022-10-26T00:15:27;4.90;;;2.40;;
5277;SDS011;2662;51.194;6.614;2022-10-26T00:17:54;4.60;;;1.97;;
5277;SDS011;2662;51.194;6.614;2022-10-26T00:20:21;6.77;;;2.50;;
5277;SDS011;2662;51.194;6.614;2022-10-26T00:22:48;10.13;;;2.20;;
5277;SDS011;2662;51.194;6.614;2022-10-26T00:25:14;7.63;;;2.30;;
5277;SDS011;2662;51.194;6.614;2022-10-26T00:27:41;7.87;;;2.37;;
5277;SDS011;2662;51.194;6.614;2022-10-26T00:30:08;3.80;;;2.50;;
5277;SDS011;2662;51.194;6.614;2022-10-26T00:32:36;3.60;;;2.13;;
5277;SDS011;2662;51.194;6.614;2022-10-26T00:35:03;3.87;;;1.87;;
5277;SDS011;2662;51.194;6.614;2022-10-26T00:37:30;4.87;;;2.13;;
5277;SDS011;2662;51.194;6.614;2022-10-26T00:39:57;5.10;;;2.47;;
5277;SDS011;2662;51.194;6.614;2022-10-26T00:42:23;4.63;;;2.03;;
5277;SDS011;2662;51.194;6.614;2022-10-26T00:45:00;10.67;;;2.20;;
5277;SDS011;2662;51.194;6.614;2022-10-26T00:47:35;5.53;;;1.90;;
5277;SDS011;2662;51.194;6.614;2022-10-26T00:50:07;7.90;;;2.17;;
5277;SDS011;2662;51.194;6.614;2022-10-26T00:52:36;2.20;;;1.87;;
5277;SDS011;2662;51.194;6.614;2022-10-26T00:55:04;8.33;;;2.13;;
5277;SDS011;2662;51.194;6.614;2022-10-26T00:57:33;10.57;;;2.60;;
5277;SDS011;2662;51.194;6.614;2022-10-26T01:00:00;4.77;;;1.90;;
5277;SDS011;2662;51.194;6.614;2022-10-26T01:02:27;1.53;;;1.43;;
5277;SDS011;2662;51.194;6.614;2022-10-26T01:04:55;5.33;;;2.17;;
5277;SDS011;2662;51.194;6.614;2022-10-26T01:07:22;2.60;;;1.40;;
5277;SDS011;2662;51.194;6.614;2022-10-26T01:09:51;5.90;;;2.00;;
5277;SDS011;2662;51.194;6.614;2022-10-26T01:12:19;3.37;;;1.67;;
5277;SDS011;2662;51.194;6.614;2022-10-26T01:14:46;6.30;;;1.87;;
5277;SDS011;2662;51.194;6.614;2022-10-26T01:17:16;9.33;;;1.93;;
5277;SDS011;2662;51.194;6.614;2022-10-26T01:23:02;4.07;;;2.10;;
5277;SDS011;2662;51.194;6.614;2022-10-26T01:25:44;3.20;;;2.30;;
5277;SDS011;2662;51.194;6.614;2022-10-26T01:28:31;4.97;;;1.67;;
5277;SDS011;2662;51.194;6.614;2022-10-26T01:31:13;3.40;;;1.70;;
5277;SDS011;2662;51.194;6.614;2022-10-26T01:33:46;4.27;;;1.90;;
5277;SDS011;2662;51.194;6.614;2022-10-26T01:36:21;12.00;;;1.70;;
5277;SDS011;2662;51.194;6.614;2022-10-26T01:38:57;5.60;;;1.37;;
5277;SDS011;2662;51.194;6.614;2022-10-26T01:41:27;6.10;;;1.77;;
5277;SDS011;2662;51.194;6.614;2022-10-26T01:43:58;6.87;;;2.10;;
5277;SDS011;2662;51.194;6.614;2022-10-26T01:46:32;3.67;;;1.90;;
5277;SDS011;2662;51.194;6.614;2022-10-26T01:49:02;1.93;;;1.50;;
5277;SDS011;2662;51.194;6.614;2022-10-26T01:51:33;1.70;;;1.43;;
5277;SDS011;2662;51.194;6.614;2022-10-26T01:54:00;6.73;;;1.50;;
5277;SDS011;2662;51.194;6.614;2022-10-26T01:56:28;2.33;;;1.50;;
5277;SDS011;2662;51.194;6.614;2022-10-26T01:59:02;4.10;;;1.73;;
5277;SDS011;2662;51.194;6.614;2022-10-26T02:02:09;4.40;;;1.50;;
5277;SDS011;2662;51.194;6.614;2022-10-26T02:05:02;2.20;;;1.53;;
5277;SDS011;2662;51.194;6.614;2022-10-26T02:07:40;4.87;;;1.50;;
5277;SDS011;2662;51.194;6.614;2022-10-26T02:10:17;5.47;;;1.43;;
5277;SDS011;2662;51.194;6.614;2022-10-26T02:12:56;2.23;;;1.60;;
5277;SDS011;2662;51.194;6.614;2022-10-26T02:15:30;6.00;;;1.70;;
5277;SDS011;2662;51.194;6.614;2022-10-26T02:18:04;10.23;;;1.43;;
5277;SDS011;2662;51.194;6.614;2022-10-26T02:20:38;4.10;;;2.17;;
5277;SDS011;2662;51.194;6.614;2022-10-26T02:23:09;5.10;;;1.90;;
5277;SDS011;2662;51.194;6.614;2022-10-26T02:25:39;8.93;;;2.30;;
5277;SDS011;2662;51.194;6.614;2022-10-26T02:28:11;5.50;;;1.90;;
5277;SDS011;2662;51.194;6.614;2022-10-26T02:30:42;6.83;;;1.43;;
5277;SDS011;2662;51.194;6.614;2022-10-26T02:33:12;7.17;;;1.80;;
5277;SDS011;2662;51.194;6.614;2022-10-26T02:35:41;6.27;;;2.30;;
5277;SDS011;2662;51.194;6.614;2022-10-26T02:38:10;5.83;;;1.90;;
5277;SDS011;2662;51.194;6.614;2022-10-26T02:40:38;1.80;;;1.70;;
5277;SDS011;2662;51.194;6.614;2022-10-26T02:43:06;3.43;;;1.93;;
5277;SDS011;2662;51.194;6.614;2022-10-26T02:45:38;7.20;;;1.60;;
5277;SDS011;2662;51.194;6.614;2022-10-26T02:48:09;5.80;;;1.60;;
5277;SDS011;2662;51.194;6.614;2022-10-26T02:50:39;6.57;;;1.93;;
5277;SDS011;2662;51.194;6.614;2022-10-26T02:53:15;4.70;;;1.73;;
5277;SDS011;2662;51.194;6.614;2022-10-26T02:55:49;2.93;;;2.10;;
5277;SDS011;2662;51.194;6.614;2022-10-26T02:58:18;1.53;;;1.43;;
5277;SDS011;2662;51.194;6.614;2022-10-26T03:00:47;3.10;;;1.50;;
5277;SDS011;2662;51.194;6.614;2022-10-26T03:03:16;6.83;;;1.90;;
5277;SDS011;2662;51.194;6.614;2022-10-26T03:05:45;4.43;;;1.70;;
5277;SDS011;2662;51.194;6.614;2022-10-26T03:08:12;7.07;;;2.13;;
5277;SDS011;2662;51.194;6.614;2022-10-26T03:10:40;2.63;;;1.80;;
5277;SDS011;2662;51.194;6.614;2022-10-26T03:13:08;4.07;;;1.70;;
5277;SDS011;2662;51.194;6.614;2022-10-26T03:15:36;1.87;;;1.60;;
5277;SDS011;2662;51.194;6.614;2022-10-26T03:18:03;3.20;;;2.07;;
5277;SDS011;2662;51.194;6.614;2022-10-26T03:20:30;3.57;;;1.60;;
5277;SDS011;2662;51.194;6.614;2022-10-26T03:22:59;5.83;;;2.00;;
5277;SDS011;2662;51.194;6.614;2022-10-26T03:25:25;6.23;;;2.07;;
5277;SDS011;2662;51.194;6.614;2022-10-26T03:27:55;2.30;;;1.50;;
5277;SDS011;2662;51.194;6.614;2022-10-26T03:30:23;1.63;;;1.53;;
5277;SDS011;2662;51.194;6.614;2022-10-26T03:32:49;5.50;;;1.70;;
5277;SDS011;2662;51.194;6.614;2022-10-26T03:35:16;5.70;;;1.70;;
5277;SDS011;2662;51.194;6.614;2022-10-26T03:37:43;2.57;;;1.40;;
5277;SDS011;2662;51.194;6.614;2022-10-26T03:40:11;4.57;;;1.57;;
5277;SDS011;2662;51.194;6.614;2022-10-26T03:42:38;2.40;;;1.53;;
5277;SDS011;2662;51.194;6.614;2022-10-26T03:45:05;4.67;;;1.80;;
5277;SDS011;2662;51.194;6.614;2022-10-26T03:47:33;7.80;;;1.50;;
5277;SDS011;2662;51.194;6.614;2022-10-26T03:49:59;2.87;;;1.33;;
5277;SDS011;2662;51.194;6.614;2022-10-26T03:52:26;4.60;;;1.63;;
5277;SDS011;2662;51.194;6.614;2022-10-26T03:54:53;3.30;;;1.83;;
5277;SDS011;2662;51.194;6.614;2022-10-26T03:57:21;3.77;;;1.40;;
5277;SDS011;2662;51.194;6.614;2022-10-26T03:59:47;1.80;;;1.40;;
5277;SDS011;2662;51.194;6.614;2022-10-26T04:02:14;3.60;;;1.40;;
5277;SDS011;2662;51.194;6.614;2022-10-26T04:04:41;8.33;;;2.10;;
5277;SDS011;2662;51.194;6.614;2022-10-26T04:07:08;6.50;;;1.50;;
5277;SDS011;2662;51.194;6.614;2022-10-26T04:09:34;18.60;;;1.93;;
5277;SDS011;2662;51.194;6.614;2022-10-26T04:12:01;3.13;;;1.63;;
5277;SDS011;2662;51.194;6.614;2022-10-26T04:14:29;2.20;;;1.40;;
5277;SDS011;2662;51.194;6.614;2022-10-26T04:16:56;9.00;;;1.50;;
5277;SDS011;2662;51.194;6.614;2022-10-26T04:19:23;1.67;;;1.47;;
5277;SDS011;2662;51.194;6.614;2022-10-26T04:21:49;12.37;;;1.40;;
5277;SDS011;2662;51.194;6.614;2022-10-26T04:24:16;1.20;;;1.20;;
5277;SDS011;2662;51.194;6.614;2022-10-26T04:26:43;10.43;;;2.63;;
5277;SDS011;2662;51.194;6.614;2022-10-26T04:29:10;3.47;;;1.40;;
5277;SDS011;2662;51.194;6.614;2022-10-26T04:31:39;6.03;;;1.80;;
5277;SDS011;2662;51.194;6.614;2022-10-26T04:34:07;4.30;;;1.60;;
5277;SDS011;2662;51.194;6.614;2022-10-26T04:36:33;14.07;;;1.90;;
5277;SDS011;2662;51.194;6.614;2022-10-26T04:39:00;4.70;;;1.70;;
5277;SDS011;2662;51.194;6.614;2022-10-26T04:41:27;4.40;;;1.30;;
5277;SDS011;2662;51.194;6.614;2022-10-26T04:43:54;6.40;;;1.60;;
5277;SDS011;2662;51.194;6.614;2022-10-26T04:46:20;8.17;;;1.33;;
5277;SDS011;2662;51.194;6.614;2022-10-26T04:48:48;1.70;;;1.33;;
5277;SDS011;2662;51.194;6.614;2022-10-26T04:51:15;4.07;;;1.30;;
5277;SDS011;2662;51.194;6.614;2022-10-26T04:53:42;2.67;;;1.67;;
5277;SDS011;2662;51.194;6.614;2022-10-26T04:56:09;6.03;;;1.93;;
5277;SDS011;2662;51.194;6.614;2022-10-26T04:58:35;2.00;;;1.20;;
5277;SDS011;2662;51.194;6.614;2022-10-26T05:01:02;2.50;;;1.50;;
5277;SDS011;2662;51.194;6.614;2022-10-26T05:03:29;6.97;;;1.63;;
5277;SDS011;2662;51.194;6.614;2022-10-26T05:05:58;10.60;;;1.70;;
5277;SDS011;2662;51.194;6.614;2022-10-26T05:08:26;4.77;;;1.50;;
5277;SDS011;2662;51.194;6.614;2022-10-26T05:10:53;6.03;;;1.50;;
5277;SDS011;2662;51.194;6.614;2022-10-26T05:13:20;5.47;;;1.57;;
5277;SDS011;2662;51.194;6.614;2022-10-26T05:15:47;8.90;;;1.77;;
5277;SDS011;2662;51.194;6.614;2022-10-26T05:18:17;10.47;;;2.47;;
5277;SDS011;2662;51.194;6.614;2022-10-26T05:20:44;7.67;;;2.00;;
5277;SDS011;2662;51.194;6.614;2022-10-26T05:23:15;4.13;;;2.03;;
5277;SDS011;2662;51.194;6.614;2022-10-26T05:25:43;4.03;;;1.87;;
5277;SDS011;2662;51.194;6.614;2022-10-26T05:28:10;5.43;;;2.57;;
5277;SDS011;2662;51.194;6.614;2022-10-26T05:30:39;5.10;;;1.70;;
5277;SDS011;2662;51.194;6.614;2022-10-26T05:33:07;10.57;;;1.80;;
5277;SDS011;2662;51.194;6.614;2022-10-26T05:35:35;2.00;;;1.50;;
5277;SDS011;2662;51.194;6.614;2022-10-26T05:38:05;5.07;;;1.60;;
5277;SDS011;2662;51.194;6.614;2022-10-26T05:40:34;8.23;;;1.73;;
5277;SDS011;2662;51.194;6.614;2022-10-26T05:43:01;2.80;;;1.70;;
5277;SDS011;2662;51.194;6.614;2022-10-26T05:45:28;4.13;;;1.40;;
5277;SDS011;2662;51.194;6.614;2022-10-26T05:47:55;2.53;;;1.63;;
5277;SDS011;2662;51.194;6.614;2022-10-26T05:50:22;3.30;;;1.97;;
5277;SDS011;2662;51.194;6.614;2022-10-26T05:52:49;2.30;;;1.53;;
5277;SDS011;2662;51.194;6.614;2022-10-26T05:55:16;7.23;;;1.80;;
5277;SDS011;2662;51.194;6.614;2022-10-26T05:57:45;3.37;;;1.60;;
5277;SDS011;2662;51.194;6.614;2022-10-26T06:00:14;4.80;;;1.50;;
5277;SDS011;2662;51.194;6.614;2022-10-26T06:02:45;3.13;;;1.40;;
5277;SDS011;2662;51.194;6.614;2022-10-26T06:05:21;9.10;;;1.80;;
5277;SDS011;2662;51.194;6.614;2022-10-26T06:07:51;5.00;;;1.43;;
5277;SDS011;2662;51.194;6.614;2022-10-26T06:10:19;8.13;;;1.97;;
5277;SDS011;2662;51.194;6.614;2022-10-26T06:12:47;3.40;;;1.73;;
5277;SDS011;2662;51.194;6.614;2022-10-26T06:15:15;4.43;;;1.50;;
5277;SDS011;2662;51.194;6.614;2022-10-26T06:17:45;2.90;;;1.37;;
5277;SDS011;2662;51.194;6.614;2022-10-26T06:20:25;4.87;;;1.53;;
5277;SDS011;2662;51.194;6.614;2022-10-26T06:23:07;8.00;;;1.77;;
5277;SDS011;2662;51.194;6.614;2022-10-26T06:25:45;2.10;;;1.60;;
5277;SDS011;2662;51.194;6.614;2022-10-26T06:28:19;3.93;;;1.43;;
5277;SDS011;2662;51.194;6.614;2022-10-26T06:30:53;5.10;;;1.87;;
5277;SDS011;2662;51.194;6.614;2022-10-26T06:33:20;3.93;;;2.10;;
5277;SDS011;2662;51.194;6.614;2022-10-26T06:35:49;5.30;;;2.00;;
5277;SDS011;2662;51.194;6.614;2022-10-26T06:38:23;11.43;;;2.70;;
5277;SDS011;2662;51.194;6.614;2022-10-26T06:40:54;3.23;;;1.83;;
5277;SDS011;2662;51.194;6.614;2022-10-26T06:43:23;5.93;;;2.10;;
5277;SDS011;2662;51.194;6.614;2022-10-26T06:45:53;3.50;;;2.10;;
5277;SDS011;2662;51.194;6.614;2022-10-26T06:48:29;4.17;;;1.90;;
5277;SDS011;2662;51.194;6.614;2022-10-26T06:51:03;4.57;;;2.00;;
5277;SDS011;2662;51.194;6.614;2022-10-26T06:53:32;11.07;;;1.83;;
5277;SDS011;2662;51.194;6.614;2022-10-26T06:56:04;10.17;;;1.80;;
5277;SDS011;2662;51.194;6.614;2022-10-26T06:58:33;6.57;;;2.00;;
5277;SDS011;2662;51.194;6.614;2022-10-26T07:01:02;3.00;;;1.93;;
5277;SDS011;2662;51.194;6.614;2022-10-26T07:03:29;6.33;;;1.87;;
5277;SDS011;2662;51.194;6.614;2022-10-26T07:05:56;4.83;;;1.90;;
5277;SDS011;2662;51.194;6.614;2022-10-26T07:08:23;7.47;;;1.90;;
5277;SDS011;2662;51.194;6.614;2022-10-26T07:10:49;3.37;;;1.93;;
5277;SDS011;2662;51.194;6.614;2022-10-26T07:13:16;9.17;;;2.37;;
5277;SDS011;2662;51.194;6.614;2022-10-26T07:15:44;7.67;;;2.20;;
5277;SDS011;2662;51.194;6.614;2022-10-26T07:18:12;5.23;;;2.53;;
5277;SDS011;2662;51.194;6.614;2022-10-26T07:20:39;3.93;;;2.10;;
5277;SDS011;2662;51.194;6.614;2022-10-26T07:23:06;9.13;;;2.60;;
5277;SDS011;2662;51.194;6.614;2022-10-26T07:25:35;3.03;;;2.00;;
5277;SDS011;2662;51.194;6.614;2022-10-26T07:28:04;4.17;;;2.07;;
5277;SDS011;2662;51.194;6.614;2022-10-26T07:30:32;3.80;;;1.90;;
5277;SDS011;2662;51.194;6.614;2022-10-26T07:33:01;7.87;;;1.93;;
5277;SDS011;2662;51.194;6.614;2022-10-26T07:35:31;6.17;;;2.20;;
5277;SDS011;2662;51.194;6.614;2022-10-26T07:37:58;3.57;;;1.73;;
5277;SDS011;2662;51.194;6.614;2022-10-26T07:40:25;10.93;;;1.90;;
5277;SDS011;2662;51.194;6.614;2022-10-26T07:42:54;6.43;;;1.83;;
5277;SDS011;2662;51.194;6.614;2022-10-26T07:45:22;7.63;;;1.70;;
5277;SDS011;2662;51.194;6.614;2022-10-26T07:47:50;7.70;;;1.90;;
5277;SDS011;2662;51.194;6.614;2022-10-26T07:50:18;6.03;;;2.27;;
5277;SDS011;2662;51.194;6.614;2022-10-26T07:52:45;1.97;;;1.50;;
5277;SDS011;2662;51.194;6.614;2022-10-26T07:55:12;4.90;;;1.57;;
5277;SDS011;2662;51.194;6.614;2022-10-26T07:57:39;3.87;;;1.70;;
5277;SDS011;2662;51.194;6.614;2022-10-26T08:00:07;10.30;;;2.03;;
5277;SDS011;2662;51.194;6.614;2022-10-26T08:02:35;20.23;;;2.20;;
5277;SDS011;2662;51.194;6.614;2022-10-26T08:05:02;8.77;;;1.70;;
5277;SDS011;2662;51.194;6.614;2022-10-26T08:07:30;3.30;;;1.60;;
5277;SDS011;2662;51.194;6.614;2022-10-26T08:09:57;7.80;;;1.70;;
5277;SDS011;2662;51.194;6.614;2022-10-26T08:12:24;5.10;;;2.13;;
5277;SDS011;2662;51.194;6.614;2022-10-26T08:14:51;8.63;;;2.30;;
5277;SDS011;2662;51.194;6.614;2022-10-26T08:17:18;3.30;;;1.47;;
5277;SDS011;2662;51.194;6.614;2022-10-26T08:19:46;10.97;;;2.00;;
5277;SDS011;2662;51.194;6.614;2022-10-26T08:22:13;3.70;;;1.80;;
5277;SDS011;2662;51.194;6.614;2022-10-26T08:24:41;5.40;;;1.90;;
5277;SDS011;2662;51.194;6.614;2022-10-26T08:27:10;2.83;;;1.70;;
5277;SDS011;2662;51.194;6.614;2022-10-26T08:29:37;4.77;;;1.80;;
5277;SDS011;2662;51.194;6.614;2022-10-26T08:32:04;5.67;;;1.70;;
5277;SDS011;2662;51.194;6.614;2022-10-26T08:34:31;4.53;;;2.07;;
5277;SDS011;2662;51.194;6.614;2022-10-26T08:36:57;4.70;;;2.53;;
5277;SDS011;2662;51.194;6.614;2022-10-26T08:39:24;4.20;;;2.07;;
5277;SDS011;2662;51.194;6.614;2022-10-26T08:41:55;5.67;;;1.90;;
5277;SDS011;2662;51.194;6.614;2022-10-26T08:44:28;11.50;;;2.40;;
5277;SDS011;2662;51.194;6.614;2022-10-26T08:47:02;9.30;;;1.60;;
5277;SDS011;2662;51.194;6.614;2022-10-26T08:49:35;7.70;;;2.50;;
5277;SDS011;2662;51.194;6.614;2022-10-26T08:52:08;4.60;;;1.90;;
5277;SDS011;2662;51.194;6.614;2022-10-26T08:54:40;5.70;;;2.10;;
5277;SDS011;2662;51.194;6.614;2022-10-26T08:57:13;7.30;;;2.40;;
5277;SDS011;2662;51.194;6.614;2022-10-26T08:59:46;3.23;;;1.83;;
5277;SDS011;2662;51.194;6.614;2022-10-26T09:02:16;4.17;;;1.77;;
5277;SDS011;2662;51.194;6.614;2022-10-26T09:04:43;5.30;;;2.30;;
5277;SDS011;2662;51.194;6.614;2022-10-26T09:07:11;9.50;;;2.23;;
5277;SDS011;2662;51.194;6.614;2022-10-26T09:09:50;8.50;;;2.67;;
5277;SDS011;2662;51.194;6.614;2022-10-26T09:12:26;3.40;;;1.70;;
5277;SDS011;2662;51.194;6.614;2022-10-26T09:15:01;4.90;;;2.47;;
5277;SDS011;2662;51.194;6.614;2022-10-26T09:17:38;5.13;;;1.90;;
5277;SDS011;2662;51.194;6.614;2022-10-26T09:20:16;4.33;;;2.00;;
5277;SDS011;2662;51.194;6.614;2022-10-26T09:23:05;37.27;;;2.80;;
5277;SDS011;2662;51.194;6.614;2022-10-26T09:25:41;4.17;;;1.90;;
5277;SDS011;2662;51.194;6.614;2022-10-26T09:28:13;8.00;;;2.30;;
5277;SDS011;2662;51.194;6.614;2022-10-26T09:30:42;4.23;;;1.80;;
5277;SDS011;2662;51.194;6.614;2022-10-26T09:33:11;6.80;;;1.83;;
5277;SDS011;2662;51.194;6.614;2022-10-26T09:35:42;13.27;;;2.23;;
5277;SDS011;2662;51.194;6.614;2022-10-26T09:38:12;6.90;;;1.93;;
5277;SDS011;2662;51.194;6.614;2022-10-26T09:40:45;4.80;;;1.97;;
5277;SDS011;2662;51.194;6.614;2022-10-26T09:43:19;3.20;;;1.60;;
5277;SDS011;2662;51.194;6.614;2022-10-26T09:45:50;14.50;;;2.10;;
5277;SDS011;2662;51.194;6.614;2022-10-26T09:48:19;8.30;;;1.93;;
5277;SDS011;2662;51.194;6.614;2022-10-26T09:50:50;4.10;;;1.80;;
5277;SDS011;2662;51.194;6.614;2022-10-26T09:53:17;4.97;;;1.87;;
5277;SDS011;2662;51.194;6.614;2022-10-26T09:55:44;7.40;;;2.33;;
5277;SDS011;2662;51.194;6.614;2022-10-26T09:58:13;8.37;;;1.87;;
5277;SDS011;2662;51.194;6.614;2022-10-26T10:00:45;11.37;;;2.17;;
5277;SDS011;2662;51.194;6.614;2022-10-26T10:03:18;4.90;;;1.90;;
5277;SDS011;2662;51.194;6.614;2022-10-26T10:05:49;5.23;;;2.30;;
5277;SDS011;2662;51.194;6.614;2022-10-26T10:08:17;10.60;;;1.87;;
5277;SDS011;2662;51.194;6.614;2022-10-26T10:13:34;5.43;;;1.73;;
5277;SDS011;2662;51.194;6.614;2022-10-26T10:16:07;4.33;;;1.90;;
5277;SDS011;2662;51.194;6.614;2022-10-26T10:18:36;3.90;;;2.20;;
5277;SDS011;2662;51.194;6.614;2022-10-26T10:21:05;7.33;;;2.00;;
5277;SDS011;2662;51.194;6.614;2022-10-26T10:23:34;2.47;;;2.00;;
5277;SDS011;2662;51.194;6.614;2022-10-26T10:26:05;7.10;;;2.10;;
5277;SDS011;2662;51.194;6.614;2022-10-26T10:28:35;4.47;;;1.53;;
5277;SDS011;2662;51.194;6.614;2022-10-26T10:31:03;5.67;;;1.90;;
5277;SDS011;2662;51.194;6.614;2022-10-26T10:33:33;8.73;;;1.70;;
5277;SDS011;2662;51.194;6.614;2022-10-26T10:36:02;7.30;;;2.03;;
5277;SDS011;2662;51.194;6.614;2022-10-26T10:38:35;3.77;;;1.70;;
5277;SDS011;2662;51.194;6.614;2022-10-26T10:41:04;5.47;;;1.70;;
5277;SDS011;2662;51.194;6.614;2022-10-26T10:43:41;1.90;;;1.50;;
5277;SDS011;2662;51.194;6.614;2022-10-26T10:46:11;5.23;;;1.63;;
5277;SDS011;2662;51.194;6.614;2022-10-26T10:48:46;12.87;;;1.77;;
5277;SDS011;2662;51.194;6.614;2022-10-26T10:51:17;5.37;;;1.70;;
5277;SDS011;2662;51.194;6.614;2022-10-26T10:53:47;17.00;;;1.50;;
5277;SDS011;2662;51.194;6.614;2022-10-26T10:56:24;7.70;;;1.37;;
5277;SDS011;2662;51.194;6.614;2022-10-26T10:59:03;4.03;;;1.87;;
5277;SDS011;2662;51.194;6.614;2022-10-26T11:01:48;3.60;;;1.63;;
5277;SDS011;2662;51.194;6.614;2022-10-26T11:04:29;6.73;;;1.50;;
5277;SDS011;2662;51.194;6.614;2022-10-26T11:07:06;8.03;;;1.57;;
5277;SDS011;2662;51.194;6.614;2022-10-26T11:09:38;4.23;;;1.30;;
5277;SDS011;2662;51.194;6.614;2022-10-26T11:12:09;4.20;;;1.07;;
5277;SDS011;2662;51.194;6.614;2022-10-26T11:14:42;6.20;;;1.27;;
5277;SDS011;2662;51.194;6.614;2022-10-26T11:17:13;2.50;;;1.67;;
5277;SDS011;2662;51.194;6.614;2022-10-26T11:19:46;3.80;;;1.47;;
5277;SDS011;2662;51.194;6.614;2022-10-26T11:22:18;4.87;;;1.50;;
5277;SDS011;2662;51.194;6.614;2022-10-26T11:24:49;5.00;;;1.30;;
5277;SDS011;2662;51.194;6.614;2022-10-26T11:27:23;10.77;;;1.47;;
5277;SDS011;2662;51.194;6.614;2022-10-26T11:29:56;1.97;;;1.23;;
5277;SDS011;2662;51.194;6.614;2022-10-26T11:32:28;3.10;;;1.20;;
5277;SDS011;2662;51.194;6.614;2022-10-26T11:35:02;5.90;;;1.20;;
5277;SDS011;2662;51.194;6.614;2022-10-26T11:37:38;19.90;;;2.30;;
5277;SDS011;2662;51.194;6.614;2022-10-26T11:40:13;3.50;;;1.23;;
5277;SDS011;2662;51.194;6.614;2022-10-26T11:42:48;1.30;;;1.10;;
5277;SDS011;2662;51.194;6.614;2022-10-26T11:45:21;4.67;;;1.30;;
5277;SDS011;2662;51.194;6.614;2022-10-26T11:47:51;1.30;;;1.20;;
5277;SDS011;2662;51.194;6.614;2022-10-26T11:50:24;3.03;;;1.30;;
5277;SDS011;2662;51.194;6.614;2022-10-26T11:52:55;2.57;;;1.30;;
5277;SDS011;2662;51.194;6.614;2022-10-26T11:55:25;10.07;;;1.47;;
5277;SDS011;2662;51.194;6.614;2022-10-26T11:57:53;3.63;;;1.40;;
5277;SDS011;2662;51.194;6.614;2022-10-26T12:00:21;6.47;;;1.57;;
5277;SDS011;2662;51.194;6.614;2022-10-26T12:02:49;2.40;;;1.13;;
5277;SDS011;2662;51.194;6.614;2022-10-26T12:05:19;1.83;;;0.90;;
5277;SDS011;2662;51.194;6.614;2022-10-26T12:07:50;2.97;;;1.10;;
5277;SDS011;2662;51.194;6.614;2022-10-26T12:10:22;1.63;;;1.17;;
5277;SDS011;2662;51.194;6.614;2022-10-26T12:12:53;3.03;;;1.47;;
5277;SDS011;2662;51.194;6.614;2022-10-26T12:15:30;3.43;;;1.60;;
5277;SDS011;2662;51.194;6.614;2022-10-26T12:18:04;7.17;;;1.10;;
5277;SDS011;2662;51.194;6.614;2022-10-26T12:20:50;6.10;;;1.20;;
5277;SDS011;2662;51.194;6.614;2022-10-26T12:23:21;5.30;;;1.33;;
5277;SDS011;2662;51.194;6.614;2022-10-26T12:25:48;2.30;;;1.00;;
5277;SDS011;2662;51.194;6.614;2022-10-26T12:28:37;1.37;;;1.03;;
5277;SDS011;2662;51.194;6.614;2022-10-26T12:34:10;3.87;;;1.27;;
5277;SDS011;2662;51.194;6.614;2022-10-26T12:36:48;3.17;;;1.47;;
5277;SDS011;2662;51.194;6.614;2022-10-26T12:42:09;3.60;;;1.37;;
5277;SDS011;2662;51.194;6.614;2022-10-26T12:48:00;1.57;;;1.00;;
5277;SDS011;2662;51.194;6.614;2022-10-26T12:50:28;5.03;;;1.50;;
5277;SDS011;2662;51.194;6.614;2022-10-26T12:52:55;3.53;;;1.53;;
5277;SDS011;2662;51.194;6.614;2022-10-26T12:55:38;2.70;;;1.20;;
5277;SDS011;2662;51.194;6.614;2022-10-26T12:58:29;2.70;;;1.30;;
5277;SDS011;2662;51.194;6.614;2022-10-26T13:04:24;15.17;;;1.30;;
5277;SDS011;2662;51.194;6.614;2022-10-26T13:07:23;1.87;;;1.17;;
5277;SDS011;2662;51.194;6.614;2022-10-26T13:09:53;3.97;;;1.33;;
5277;SDS011;2662;51.194;6.614;2022-10-26T13:12:28;1.10;;;0.90;;
5277;SDS011;2662;51.194;6.614;2022-10-26T13:15:03;3.93;;;1.27;;
5277;SDS011;2662;51.194;6.614;2022-10-26T13:17:43;1.80;;;1.10;;
5277;SDS011;2662;51.194;6.614;2022-10-26T13:20:20;1.80;;;1.00;;
5277;SDS011;2662;51.194;6.614;2022-10-26T13:22:47;4.37;;;1.30;;
5277;SDS011;2662;51.194;6.614;2022-10-26T13:25:17;3.10;;;1.13;;
5277;SDS011;2662;51.194;6.614;2022-10-26T13:27:57;7.07;;;1.30;;
5277;SDS011;2662;51.194;6.614;2022-10-26T13:33:17;2.80;;;0.97;;
5277;SDS011;2662;51.194;6.614;2022-10-26T13:35:49;2.40;;;0.90;;
5277;SDS011;2662;51.194;6.614;2022-10-26T13:38:18;2.67;;;1.40;;
5277;SDS011;2662;51.194;6.614;2022-10-26T13:40:47;7.37;;;1.07;;
5277;SDS011;2662;51.194;6.614;2022-10-26T13:43:18;4.97;;;1.30;;
5277;SDS011;2662;51.194;6.614;2022-10-26T13:45:50;7.90;;;1.20;;
5277;SDS011;2662;51.194;6.614;2022-10-26T13:48:22;2.80;;;1.20;;
5277;SDS011;2662;51.194;6.614;2022-10-26T13:50:55;5.43;;;1.20;;
5277;SDS011;2662;51.194;6.614;2022-10-26T13:53:28;1.67;;;0.90;;
5277;SDS011;2662;51.194;6.614;2022-10-26T13:56:04;3.90;;;1.17;;
5277;SDS011;2662;51.194;6.614;2022-10-26T13:58:40;6.30;;;1.47;;
5277;SDS011;2662;51.194;6.614;2022-10-26T14:01:11;5.30;;;1.20;;
5277;SDS011;2662;51.194;6.614;2022-10-26T14:03:40;1.90;;;0.90;;
5277;SDS011;2662;51.194;6.614;2022-10-26T14:06:12;3.17;;;0.90;;
5277;SDS011;2662;51.194;6.614;2022-10-26T14:08:42;3.00;;;1.10;;
5277;SDS011;2662;51.194;6.614;2022-10-26T14:11:11;6.90;;;1.80;;
5277;SDS011;2662;51.194;6.614;2022-10-26T14:13:41;5.10;;;1.13;;
5277;SDS011;2662;51.194;6.614;2022-10-26T14:16:08;4.50;;;1.50;;
5277;SDS011;2662;51.194;6.614;2022-10-26T14:18:36;3.40;;;1.20;;
5277;SDS011;2662;51.194;6.614;2022-10-26T14:21:04;2.63;;;0.90;;
5277;SDS011;2662;51.194;6.614;2022-10-26T14:23:33;5.63;;;1.10;;
5277;SDS011;2662;51.194;6.614;2022-10-26T14:26:01;5.27;;;1.03;;
5277;SDS011;2662;51.194;6.614;2022-10-26T14:28:29;8.63;;;1.10;;
5277;SDS011;2662;51.194;6.614;2022-10-26T14:31:11;3.73;;;1.00;;
5277;SDS011;2662;51.194;6.614;2022-10-26T14:33:38;8.20;;;1.30;;
5277;SDS011;2662;51.194;6.614;2022-10-26T14:36:05;4.87;;;1.00;;
5277;SDS011;2662;51.194;6.614;2022-10-26T14:38:35;6.93;;;1.20;;
5277;SDS011;2662;51.194;6.614;2022-10-26T14:41:08;6.50;;;1.00;;
5277;SDS011;2662;51.194;6.614;2022-10-26T14:43:35;2.40;;;1.00;;
5277;SDS011;2662;51.194;6.614;2022-10-26T14:46:02;1.53;;;0.90;;
5277;SDS011;2662;51.194;6.614;2022-10-26T14:48:31;4.83;;;1.30;;
5277;SDS011;2662;51.194;6.614;2022-10-26T14:51:00;3.03;;;0.90;;
5277;SDS011;2662;51.194;6.614;2022-10-26T14:53:32;9.13;;;1.07;;
5277;SDS011;2662;51.194;6.614;2022-10-26T14:56:02;6.63;;;0.80;;
5277;SDS011;2662;51.194;6.614;2022-10-26T14:58:30;0.83;;;0.83;;
5277;SDS011;2662;51.194;6.614;2022-10-26T15:03:57;6.93;;;1.40;;
5277;SDS011;2662;51.194;6.614;2022-10-26T15:06:29;1.60;;;0.93;;
5277;SDS011;2662;51.194;6.614;2022-10-26T15:09:19;6.50;;;1.30;;
5277;SDS011;2662;51.194;6.614;2022-10-26T15:12:02;1.90;;;0.90;;
5277;SDS011;2662;51.194;6.614;2022-10-26T15:14:29;1.27;;;0.70;;
5277;SDS011;2662;51.194;6.614;2022-10-26T15:16:57;4.07;;;1.00;;
5277;SDS011;2662;51.194;6.614;2022-10-26T15:19:26;1.03;;;0.90;;
5277;SDS011;2662;51.194;6.614;2022-10-26T15:21:53;1.50;;;0.90;;
5277;SDS011;2662;51.194;6.614;2022-10-26T15:24:23;6.67;;;0.97;;
5277;SDS011;2662;51.194;6.614;2022-10-26T15:26:55;5.03;;;1.13;;
5277;SDS011;2662;51.194;6.614;2022-10-26T15:29:39;3.10;;;1.00;;
5277;SDS011;2662;51.194;6.614;2022-10-26T15:32:18;5.27;;;1.00;;
5277;SDS011;2662;51.194;6.614;2022-10-26T15:37:51;4.97;;;1.00;;
5277;SDS011;2662;51.194;6.614;2022-10-26T15:40:19;1.27;;;1.07;;
5277;SDS011;2662;51.194;6.614;2022-10-26T15:42:47;4.63;;;1.00;;
5277;SDS011;2662;51.194;6.614;2022-10-26T15:45:16;1.00;;;0.90;;
5277;SDS011;2662;51.194;6.614;2022-10-26T15:47:45;1.67;;;1.00;;
5277;SDS011;2662;51.194;6.614;2022-10-26T15:50:12;4.53;;;0.90;;
5277;SDS011;2662;51.194;6.614;2022-10-26T15:52:41;6.23;;;0.90;;
5277;SDS011;2662;51.194;6.614;2022-10-26T15:55:08;1.67;;;1.20;;
5277;SDS011;2662;51.194;6.614;2022-10-26T15:57:35;3.23;;;1.20;;
5277;SDS011;2662;51.194;6.614;2022-10-26T16:00:03;3.20;;;1.10;;
5277;SDS011;2662;51.194;6.614;2022-10-26T16:02:31;3.57;;;1.37;;